Time;durP1;ratioP1;P1;durP2;ratioP2;P2;SDS_P1;SDS_P2;PMS_P1;PMS_P2;Temp;Humidity;BMP_temperature;BMP_pressure;BME280_temperature;BME280_humidity;BME280_pressure;Samples;Min_cycle;Max_cycle;Signal;HPM_P1;HPM_P2
2021/03/23 00:00:32;;;;;;;25.23;10.80;;;1.90;99.90;;;;;;5013570;28;20200;-90
2021/03/23 00:03:06;;;;;;;23.93;10.37;;;1.90;99.90;;;;;;5011935;28;20180;-90
2021/03/23 00:05:32;;;;;;;31.27;11.33;;;1.90;99.90;;;;;;5013839;28;20252;-89
2021/03/23 00:07:57;;;;;;;20.97;10.03;;;2.70;99.90;;;;;;5011456;28;20765;-91
2021/03/23 00:10:27;;;;;;;21.53;10.33;;;1.90;99.90;;;;;;5012273;28;20188;-91
2021/03/23 00:12:53;;;;;;;25.03;10.70;;;1.90;99.90;;;;;;5011994;28;20181;-91
2021/03/23 00:15:20;;;;;;;21.23;10.07;;;2.10;99.90;;;;;;5013517;28;20223;-89
2021/03/23 00:17:46;;;;;;;24.83;9.40;;;2.00;99.90;;;;;;5012957;28;20213;-89
2021/03/23 00:20:16;;;;;;;22.77;10.03;;;2.10;99.90;;;;;;5012119;28;20185;-88
2021/03/23 00:22:42;;;;;;;22.30;10.00;;;2.10;99.90;;;;;;5012217;28;20174;-88
2021/03/23 00:25:09;;;;;;;19.10;10.17;;;2.00;99.90;;;;;;4995333;28;20592;-89
2021/03/23 00:27:36;;;;;;;29.07;10.60;;;2.00;99.90;;;;;;4995679;28;20262;-89
2021/03/23 00:30:07;;;;;;;24.17;10.23;;;2.00;99.90;;;;;;5012932;28;20185;-89
2021/03/23 00:32:32;;;;;;;24.20;10.17;;;2.00;99.90;;;;;;4998659;28;20268;-88
2021/03/23 00:34:58;;;;;;;22.13;12.70;;;1.90;99.90;;;;;;5015486;28;20220;-88
2021/03/23 00:37:25;;;;;;;25.70;11.53;;;2.00;99.90;;;;;;5016754;28;20212;-89
2021/03/23 00:39:50;;;;;;;22.57;10.13;;;4.20;99.90;;;;;;5016296;28;20192;-89
2021/03/23 00:42:16;;;;;;;19.43;9.20;;;2.00;99.90;;;;;;4998940;28;20181;-89
2021/03/23 00:44:44;;;;;;;21.07;9.67;;;2.50;99.90;;;;;;5015396;28;20183;-88
2021/03/23 00:47:09;;;;;;;21.97;10.10;;;2.00;99.90;;;;;;4998767;28;20239;-88
2021/03/23 00:49:35;;;;;;;19.63;9.37;;;4.10;99.90;;;;;;5015595;28;20196;-88
2021/03/23 00:52:01;;;;;;;20.07;9.57;;;3.90;99.90;;;;;;5015244;28;20215;-91
2021/03/23 00:54:27;;;;;;;24.07;10.33;;;2.00;99.90;;;;;;5015422;28;20189;-88
2021/03/23 00:56:52;;;;;;;18.53;9.40;;;2.10;99.90;;;;;;4998847;28;20177;-88
2021/03/23 00:59:18;;;;;;;25.57;11.93;;;2.00;99.90;;;;;;4998577;28;20220;-88
2021/03/23 01:06:54;;;;;;;17.33;9.23;;;2.10;99.90;;;;;;5158978;22;20250;-88
2021/03/23 01:09:20;;;;;;;22.93;9.67;;;4.20;99.90;;;;;;5036636;28;20188;-89
2021/03/23 01:11:46;;;;;;;23.73;11.10;;;3.10;99.90;;;;;;5051054;28;20188;-89
2021/03/23 01:14:12;;;;;;;29.97;13.80;;;2.30;99.90;;;;;;5034563;28;20181;-89
2021/03/23 01:16:38;;;;;;;48.27;19.90;;;3.30;99.90;;;;;;5034842;28;20191;-88
2021/03/23 01:19:03;;;;;;;34.10;13.10;;;2.20;99.90;;;;;;5035356;28;20575;-89
2021/03/23 01:21:29;;;;;;;33.33;14.50;;;3.60;99.90;;;;;;5001601;28;20176;-89
2021/03/23 01:23:55;;;;;;;26.57;11.87;;;3.70;99.90;;;;;;5035810;28;20173;-89
2021/03/23 01:26:20;;;;;;;19.50;8.80;;;3.40;99.90;;;;;;5034657;28;20188;-89
2021/03/23 01:28:46;;;;;;;21.87;9.97;;;3.80;99.90;;;;;;5035231;28;20189;-88
2021/03/23 01:31:12;;;;;;;19.23;8.43;;;2.20;99.90;;;;;;5034154;28;20632;-89
2021/03/23 01:33:38;;;;;;;16.90;9.17;;;2.20;99.90;;;;;;5035504;28;20184;-89
2021/03/23 01:36:05;;;;;;;21.03;9.17;;;3.60;99.90;;;;;;5050683;28;20279;-89
2021/03/23 01:38:30;;;;;;;19.03;9.87;;;2.20;99.90;;;;;;5035492;28;20298;-88
2021/03/23 01:40:56;;;;;;;22.93;10.53;;;2.30;99.90;;;;;;5034999;28;20264;-88
2021/03/23 01:43:27;;;;;;;16.83;9.20;;;1.90;99.90;;;;;;5034205;28;20173;-89
2021/03/23 01:45:56;;;;;;;20.20;11.30;;;2.40;99.90;;;;;;5034939;28;20180;-89
2021/03/23 01:48:30;;;;;;;21.00;10.33;;;2.20;99.90;;;;;;5034027;28;20644;-88
2021/03/23 01:51:02;;;;;;;26.80;11.93;;;2.30;99.90;;;;;;5035083;28;20183;-90
2021/03/23 01:53:46;;;;;;;20.47;10.37;;;4.10;99.90;;;;;;5035229;28;20176;-90
2021/03/23 01:56:14;;;;;;;23.57;10.30;;;2.00;99.90;;;;;;5033417;28;20238;-89
2021/03/23 01:58:43;;;;;;;26.63;10.53;;;3.50;99.90;;;;;;5034942;28;20204;-90
2021/03/23 02:01:12;;;;;;;20.33;10.67;;;3.60;99.90;;;;;;5034509;28;20250;-90
2021/03/23 02:03:38;;;;;;;27.60;10.57;;;2.10;99.90;;;;;;5034996;28;20183;-89
2021/03/23 02:06:05;;;;;;;24.37;11.17;;;4.10;99.90;;;;;;5033247;28;20250;-90
2021/03/23 02:08:31;;;;;;;21.90;10.30;;;1.90;99.90;;;;;;5034982;28;20207;-90
2021/03/23 02:11:00;;;;;;;21.53;10.20;;;3.80;99.90;;;;;;5035031;28;20184;-89
2021/03/23 02:13:26;;;;;;;19.10;9.77;;;3.70;99.90;;;;;;5034640;28;20204;-89
2021/03/23 02:15:52;;;;;;;22.77;10.13;;;2.00;99.90;;;;;;5049837;28;20242;-88
2021/03/23 02:18:19;;;;;;;22.07;10.87;;;2.90;99.90;;;;;;5033110;28;20665;-88
2021/03/23 02:21:00;;;;;;;21.83;11.37;;;3.40;99.90;;;;;;5033293;28;20188;-88
2021/03/23 02:23:38;;;;;;;22.77;10.23;;;1.80;99.90;;;;;;5034511;28;20180;-89
2021/03/23 02:26:06;;;;;;;12.60;7.33;;;1.60;99.90;;;;;;5032829;28;20298;-89
2021/03/23 02:28:41;;;;;;;23.57;11.40;;;1.80;99.90;;;;;;5034592;28;20180;-89
2021/03/23 02:31:07;;;;;;;26.87;11.03;;;3.20;99.90;;;;;;5034233;28;20233;-88
2021/03/23 02:33:32;;;;;;;23.17;11.87;;;3.90;99.90;;;;;;5034568;28;20260;-89
2021/03/23 02:35:58;;;;;;;21.10;11.63;;;3.20;99.90;;;;;;5016411;28;20223;-89
2021/03/23 02:38:24;;;;;;;24.13;11.63;;;3.30;99.90;;;;;;5034211;28;20218;-89
2021/03/23 02:40:49;;;;;;;25.93;11.23;;;2.70;99.90;;;;;;5032732;28;20188;-90
2021/03/23 02:43:15;;;;;;;24.57;12.50;;;2.90;99.90;;;;;;5032775;28;20204;-89
2021/03/23 02:45:55;;;;;;;23.63;11.33;;;2.10;99.90;;;;;;5032751;28;20184;-88
2021/03/23 02:48:21;;;;;;;22.30;11.63;;;2.00;99.90;;;;;;5034115;28;20568;-88
2021/03/23 02:50:47;;;;;;;24.57;10.83;;;2.60;99.90;;;;;;5033921;28;20176;-88
2021/03/23 02:53:12;;;;;;;27.43;11.87;;;4.60;99.90;;;;;;5033596;28;20243;-88
2021/03/23 02:55:38;;;;;;;23.93;10.73;;;3.80;99.90;;;;;;5033504;28;20219;-88
2021/03/23 02:58:05;;;;;;;13.43;8.20;;;3.80;99.90;;;;;;5015948;28;20262;-89
2021/03/23 03:00:31;;;;;;;21.37;11.13;;;3.30;99.90;;;;;;5034042;28;20177;-89
2021/03/23 03:02:56;;;;;;;25.97;12.70;;;3.30;99.90;;;;;;5032563;28;20246;-89
2021/03/23 03:05:22;;;;;;;22.37;10.90;;;4.00;99.90;;;;;;4999264;28;20679;-88
2021/03/23 03:07:48;;;;;;;23.40;12.03;;;2.00;99.90;;;;;;5016171;28;20238;-88
2021/03/23 03:10:15;;;;;;;21.33;9.87;;;2.60;99.90;;;;;;4999346;28;20582;-89
2021/03/23 03:12:40;;;;;;;23.23;10.90;;;1.60;99.90;;;;;;5033744;28;20180;-89
2021/03/23 03:15:07;;;;;;;20.93;10.50;;;1.90;99.90;;;;;;5032192;28;20189;-88
2021/03/23 03:17:32;;;;;;;23.73;10.43;;;1.90;99.90;;;;;;5016074;28;20189;-90
2021/03/23 03:19:58;;;;;;;25.17;12.00;;;3.50;99.90;;;;;;5032466;28;20632;-90
2021/03/23 03:22:24;;;;;;;26.60;11.67;;;3.10;99.90;;;;;;5033369;28;20620;-90
2021/03/23 03:24:50;;;;;;;23.90;12.07;;;3.90;99.90;;;;;;5015934;28;20183;-89
2021/03/23 03:27:15;;;;;;;23.13;11.83;;;3.80;99.90;;;;;;5031975;28;20183;-89
2021/03/23 03:29:41;;;;;;;23.27;11.57;;;1.80;99.90;;;;;;5032462;28;20593;-89
2021/03/23 03:32:07;;;;;;;24.20;10.63;;;3.20;99.90;;;;;;5032060;28;20184;-89
2021/03/23 03:34:33;;;;;;;25.03;11.77;;;1.80;99.90;;;;;;4999022;28;20184;-89
2021/03/23 03:36:59;;;;;;;28.60;12.03;;;1.90;99.90;;;;;;5033119;28;20254;-89
2021/03/23 03:39:24;;;;;;;25.20;11.13;;;2.30;99.90;;;;;;5015279;28;20260;-89
2021/03/23 03:41:50;;;;;;;25.60;11.90;;;3.30;99.90;;;;;;5015821;28;20215;-89
2021/03/23 03:44:15;;;;;;;24.17;10.97;;;1.90;99.90;;;;;;5031732;28;20188;-89
2021/03/23 03:46:41;;;;;;;27.13;12.57;;;1.80;99.90;;;;;;5015799;28;20223;-89
2021/03/23 03:49:07;;;;;;;23.27;12.20;;;1.80;99.90;;;;;;5015564;28;20178;-88
2021/03/23 03:51:32;;;;;;;29.60;13.03;;;1.80;99.90;;;;;;5033125;28;20212;-88
2021/03/23 03:53:58;;;;;;;23.07;10.47;;;1.90;99.90;;;;;;5015675;28;20193;-89
2021/03/23 03:56:24;;;;;;;22.90;11.33;;;1.70;99.90;;;;;;5031750;28;20177;-90
2021/03/23 03:58:51;;;;;;;23.10;9.17;;;3.50;99.90;;;;;;5032864;28;20695;-90
2021/03/23 04:01:16;;;;;;;26.30;12.90;;;3.90;99.90;;;;;;5031923;28;20183;-89
2021/03/23 04:03:42;;;;;;;27.57;12.73;;;2.00;99.90;;;;;;5031848;28;20176;-90
2021/03/23 04:06:10;;;;;;;28.27;11.60;;;4.50;99.90;;;;;;5033016;28;20231;-89
2021/03/23 04:08:38;;;;;;;23.17;11.17;;;1.80;99.90;;;;;;5019633;28;20191;-89
2021/03/23 04:11:06;;;;;;;28.27;13.10;;;1.80;99.90;;;;;;5035833;28;20562;-89
2021/03/23 04:13:32;;;;;;;24.63;11.40;;;2.00;99.90;;;;;;5035952;28;20549;-88
2021/03/23 04:15:58;;;;;;;27.17;12.20;;;2.00;99.90;;;;;;5035757;28;20183;-89
2021/03/23 04:18:26;;;;;;;26.67;12.70;;;1.90;99.90;;;;;;5036701;28;20219;-88
2021/03/23 04:20:56;;;;;;;30.20;12.33;;;1.90;99.90;;;;;;5035363;28;20176;-89
2021/03/23 04:23:34;;;;;;;25.13;11.90;;;4.10;99.90;;;;;;5036705;28;20177;-89
2021/03/23 04:26:00;;;;;;;25.47;11.87;;;1.90;99.90;;;;;;5035531;28;20184;-89
2021/03/23 04:28:26;;;;;;;20.43;9.97;;;2.20;99.90;;;;;;5035268;28;20191;-90
2021/03/23 04:30:53;;;;;;;25.47;11.30;;;2.40;99.90;;;;;;5035321;28;20182;-88
2021/03/23 04:33:22;;;;;;;24.90;11.57;;;1.90;99.90;;;;;;5018730;28;20557;-88
2021/03/23 04:36:07;;;;;;;23.70;10.73;;;3.40;99.90;;;;;;5035448;28;20179;-88
2021/03/23 04:38:36;;;;;;;27.57;12.17;;;1.90;99.90;;;;;;5036314;28;20212;-88
2021/03/23 04:41:05;;;;;;;29.23;12.40;;;3.00;99.90;;;;;;5035087;28;20187;-89
2021/03/23 04:43:36;;;;;;;26.77;11.17;;;1.90;99.90;;;;;;5034997;28;20172;-88
2021/03/23 04:46:03;;;;;;;27.40;12.43;;;2.70;99.90;;;;;;5036255;28;20211;-87
2021/03/23 04:48:28;;;;;;;30.67;12.63;;;2.80;99.90;;;;;;5036467;28;20212;-88
2021/03/23 04:50:54;;;;;;;28.30;13.23;;;2.90;99.90;;;;;;5034746;28;20711;-86
2021/03/23 04:53:30;;;;;;;27.87;10.87;;;3.80;99.90;;;;;;5025561;28;20187;-88
2021/03/23 04:55:58;;;;;;;24.73;12.67;;;2.10;99.90;;;;;;5031933;28;20211;-87
2021/03/23 04:58:25;;;;;;;28.57;11.43;;;2.30;99.90;;;;;;5033359;28;20209;-88
2021/03/23 05:00:51;;;;;;;23.33;10.60;;;2.80;99.90;;;;;;5014082;28;20186;-87
2021/03/23 05:03:23;;;;;;;29.33;12.27;;;2.00;99.90;;;;;;5034148;28;20173;-89
2021/03/23 05:05:54;;;;;;;26.10;11.53;;;2.50;99.90;;;;;;5033076;28;20246;-86
2021/03/23 05:08:21;;;;;;;29.57;12.60;;;1.80;99.90;;;;;;5053349;28;20236;-85
2021/03/23 05:10:47;;;;;;;28.60;12.17;;;3.40;99.90;;;;;;5037422;28;20223;-85
2021/03/23 05:13:13;;;;;;;29.83;13.40;;;2.80;99.90;;;;;;5032130;28;20176;-85
2021/03/23 05:15:39;;;;;;;23.17;11.50;;;3.50;99.90;;;;;;5036845;28;20188;-90
2021/03/23 05:18:05;;;;;;;26.20;10.17;;;3.10;99.90;;;;;;5032513;28;20689;-88
2021/03/23 05:20:30;;;;;;;25.93;12.23;;;2.20;99.90;;;;;;5030522;28;20204;-87
2021/03/23 05:22:56;;;;;;;31.40;13.33;;;2.10;99.90;;;;;;5018270;28;20284;-86
2021/03/23 05:25:22;;;;;;;31.93;12.43;;;2.10;99.90;;;;;;5031235;28;20666;-86
2021/03/23 05:27:48;;;;;;;27.90;13.30;;;2.30;99.90;;;;;;5014903;28;20195;-85
2021/03/23 05:30:15;;;;;;;27.73;13.20;;;2.20;99.90;;;;;;5035771;28;20542;-89
2021/03/23 05:32:41;;;;;;;25.83;11.30;;;2.10;99.90;;;;;;5014327;28;20564;-93
2021/03/23 05:35:09;;;;;;;23.17;12.23;;;2.10;99.90;;;;;;5032041;28;20268;-89
2021/03/23 05:37:34;;;;;;;33.67;13.03;;;2.10;99.90;;;;;;5033193;28;20189;-92
2021/03/23 05:40:00;;;;;;;30.10;12.03;;;2.20;99.90;;;;;;5032708;28;20595;-91
2021/03/23 05:42:40;;;;;;;24.67;12.47;;;2.10;99.90;;;;;;5032847;28;20192;-91
2021/03/23 05:45:22;;;;;;;36.63;14.80;;;2.10;99.90;;;;;;5032058;28;20559;-90
2021/03/23 05:48:14;;;;;;;29.50;13.63;;;2.20;99.90;;;;;;5032987;28;20185;-89
2021/03/23 05:50:48;;;;;;;28.07;12.87;;;2.20;99.90;;;;;;5019860;28;20625;-88
2021/03/23 05:53:26;;;;;;;34.27;14.93;;;2.20;99.90;;;;;;5032291;28;20258;-89
2021/03/23 05:55:52;;;;;;;39.53;15.13;;;2.20;99.90;;;;;;5031563;28;20608;-88
2021/03/23 05:58:27;;;;;;;30.10;13.20;;;2.20;99.90;;;;;;5028747;28;20225;-89
2021/03/23 06:01:00;;;;;;;25.13;12.33;;;2.20;99.90;;;;;;5030885;28;20187;-88
2021/03/23 06:03:35;;;;;;;29.23;13.13;;;2.30;99.90;;;;;;5028280;28;20656;-88
2021/03/23 06:06:17;;;;;;;28.83;11.40;;;2.30;99.90;;;;;;5026186;28;20585;-89
2021/03/23 06:08:43;;;;;;;28.63;13.13;;;2.30;99.90;;;;;;5031111;28;20236;-90
2021/03/23 06:11:40;;;;;;;31.00;14.77;;;2.30;99.90;;;;;;5031891;28;20585;-88
2021/03/23 06:14:18;;;;;;;24.53;10.13;;;2.30;99.90;;;;;;5030614;28;20232;-94
2021/03/23 06:17:18;;;;;;;22.90;9.80;;;2.40;99.90;;;;;;5029620;28;20524;-90
2021/03/23 06:20:02;;;;;;;23.47;10.90;;;2.40;99.90;;;;;;5041527;28;20219;-91
2021/03/23 06:22:46;;;;;;;;;;;2.40;99.90;;;;;;5032398;28;20177;-90
2021/03/23 06:25:21;;;;;;;;;;;2.40;99.90;;;;;;5030505;28;20392;-90
2021/03/23 06:27:52;;;;;;;;;;;2.50;99.90;;;;;;5032314;28;19955;-90
2021/03/23 06:30:18;;;;;;;;;;;2.60;99.90;;;;;;5030415;28;19921;-89
2021/03/23 06:32:51;;;;;;;;;;;2.70;99.90;;;;;;5030665;28;20376;-88
2021/03/23 06:35:19;;;;;;;;;;;2.70;99.90;;;;;;5032205;28;19909;-88
2021/03/23 06:37:45;;;;;;;;;;;2.70;99.90;;;;;;5029395;28;19996;-88
2021/03/23 06:40:13;;;;;;;;;;;2.70;99.90;;;;;;5023122;28;20438;-89
2021/03/23 06:42:43;;;;;;;;;;;2.70;99.90;;;;;;5024392;28;19982;-88
2021/03/23 06:45:21;;;;;;;;;;;2.80;99.90;;;;;;5024346;28;19913;-88
2021/03/23 06:47:47;;;;;;;;;;;2.80;99.90;;;;;;5023639;28;19948;-88
2021/03/23 06:50:16;;;;;;;;;;;2.80;99.90;;;;;;5023638;28;19924;-87
2021/03/23 06:52:42;;;;;;;;;;;2.90;99.90;;;;;;5022042;28;19910;-89
2021/03/23 06:55:18;;;;;;;;;;;2.90;99.90;;;;;;5022146;28;20000;-87
2021/03/23 06:57:44;;;;;;;;;;;3.00;99.90;;;;;;5027923;28;19916;-89
2021/03/23 07:00:20;;;;;;;;;;;3.00;99.90;;;;;;5032671;28;19913;-89
2021/03/23 07:02:50;;;;;;;;;;;3.10;99.90;;;;;;5029999;28;19915;-88
2021/03/23 07:05:24;;;;;;;25.73;12.43;;;3.10;99.90;;;;;;5029148;28;20910;-88
2021/03/23 07:07:53;;;;;;;27.87;13.60;;;3.20;99.90;;;;;;5030436;28;20189;-91
2021/03/23 07:10:25;;;;;;;26.33;11.97;;;3.20;99.90;;;;;;5032247;28;20203;-87
2021/03/23 07:12:52;;;;;;;25.35;11.63;;;3.10;99.90;;;;;;5032301;28;20397;-89
2021/03/23 07:15:24;;;;;;;26.53;12.97;;;3.20;99.90;;;;;;5020330;28;20179;-87
2021/03/23 07:18:06;;;;;;;27.83;13.43;;;3.20;99.90;;;;;;5012270;28;20192;-88
2021/03/23 07:20:37;;;;;;;27.23;11.17;;;3.20;99.90;;;;;;5013461;28;20208;-88
2021/03/23 07:23:37;;;;;;;22.90;11.53;;;3.30;99.90;;;;;;5012800;28;20189;-85
2021/03/23 07:26:29;;;;;;;24.50;10.40;;;3.40;99.90;;;;;;5012128;28;20185;-89
2021/03/23 07:29:10;;;;;;;21.03;8.40;;;3.50;99.90;;;;;;5013805;28;20174;-89
2021/03/23 07:32:07;;;;;;;24.27;11.17;;;3.60;99.90;;;;;;5014810;28;20181;-91
2021/03/23 07:35:03;;;;;;;28.77;11.17;;;3.60;99.90;;;;;;5011960;28;20646;-88
2021/03/23 07:37:54;;;;;;;25.60;9.73;;;3.50;99.90;;;;;;5012200;28;20655;-89
2021/03/23 07:40:33;;;;;;;20.13;10.37;;;3.60;99.90;;;;;;5011934;28;20203;-86
2021/03/23 07:43:30;;;;;;;25.07;12.33;;;3.60;99.90;;;;;;5030005;28;20710;-85
2021/03/23 07:46:19;;;;;;;20.93;10.47;;;3.60;99.90;;;;;;5013320;28;20196;-86
2021/03/23 07:48:47;;;;;;;21.10;10.20;;;3.50;99.90;;;;;;5016449;28;20204;-87
2021/03/23 07:51:35;;;;;;;19.33;9.80;;;3.50;99.90;;;;;;5027185;28;20181;-90
2021/03/23 07:54:27;;;;;;;17.43;7.93;;;3.40;99.90;;;;;;5032632;28;20188;-88
2021/03/23 07:57:28;;;;;;;24.23;9.97;;;3.60;99.90;;;;;;5023172;28;20197;-88
2021/03/23 08:00:12;;;;;;;27.43;10.50;;;3.60;99.90;;;;;;5030471;28;20226;-90
2021/03/23 08:03:19;;;;;;;15.80;7.87;;;3.60;99.90;;;;;;5031357;28;20204;-87
2021/03/23 08:06:23;;;;;;;22.73;9.80;;;3.60;99.90;;;;;;5027902;28;20254;-86
2021/03/23 08:09:08;;;;;;;21.07;8.77;;;3.60;99.90;;;;;;5045952;28;20194;-89
2021/03/23 08:11:39;;;;;;;21.97;9.17;;;3.70;99.90;;;;;;5024485;28;20189;-88
2021/03/23 08:14:11;;;;;;;15.90;7.77;;;3.80;99.90;;;;;;5024317;28;20208;-88
2021/03/23 08:16:52;;;;;;;22.87;8.40;;;3.70;99.90;;;;;;5021988;28;20179;-87
2021/03/23 08:19:41;;;;;;;17.33;8.60;;;3.70;99.90;;;;;;5022101;28;20688;-89
2021/03/23 08:22:28;;;;;;;19.57;8.57;;;3.80;99.90;;;;;;5013749;28;20188;-87
2021/03/23 08:25:17;;;;;;;17.30;7.67;;;3.60;99.90;;;;;;5029012;28;20195;-91
2021/03/23 08:28:11;;;;;;;20.53;8.50;;;3.60;99.90;;;;;;5030564;28;20186;-87
2021/03/23 08:31:10;;;;;;;15.47;7.53;;;5.00;99.90;;;;;;5030294;28;20182;-87
2021/03/23 08:33:54;;;;;;;19.43;8.60;;;3.90;99.90;;;;;;5045840;28;20180;-86
2021/03/23 08:36:42;;;;;;;22.53;7.70;;;4.00;99.90;;;;;;5030374;28;20167;-89
2021/03/23 08:39:34;;;;;;;17.67;7.23;;;3.90;99.90;;;;;;5045686;28;20224;-87
2021/03/23 08:42:07;;;;;;;18.67;8.47;;;4.00;99.90;;;;;;5047424;28;20180;-88
2021/03/23 08:44:37;;;;;;;18.77;7.30;;;4.00;99.90;;;;;;5033264;28;20209;-87
2021/03/23 08:47:34;;;;;;;17.90;6.77;;;4.00;99.90;;;;;;5032483;28;20201;-88
2021/03/23 08:50:09;;;;;;;22.90;7.47;;;4.00;99.90;;;;;;5047795;28;20230;-88
2021/03/23 08:52:42;;;;;;;15.43;6.67;;;4.10;99.90;;;;;;5033859;28;20169;-89
2021/03/23 08:55:30;;;;;;;15.13;6.93;;;4.10;99.90;;;;;;5036780;28;20168;-89
2021/03/23 08:58:15;;;;;;;16.13;8.40;;;4.10;99.90;;;;;;5036168;28;20172;-86
2021/03/23 09:00:47;;;;;;;13.73;6.20;;;4.10;99.90;;;;;;5052588;28;20608;-86
2021/03/23 09:03:12;;;;;;;14.10;7.53;;;4.10;99.90;;;;;;5036482;28;20265;-84
2021/03/23 09:05:55;;;;;;;16.93;8.07;;;4.20;99.90;;;;;;5035941;28;20313;-86
2021/03/23 09:08:41;;;;;;;21.30;7.50;;;4.20;99.90;;;;;;5035911;28;20167;-87
2021/03/23 09:11:58;;;;;;;16.17;6.87;;;4.30;99.90;;;;;;5050850;28;20210;-86
2021/03/23 09:14:24;;;;;;;19.33;7.97;;;4.50;99.90;;;;;;5035317;28;20267;-88
2021/03/23 09:17:09;;;;;;;13.43;6.33;;;4.40;99.90;;;;;;5034675;28;20270;-87
2021/03/23 09:19:55;;;;;;;22.53;8.80;;;4.50;99.90;;;;;;5022318;28;20220;-87
2021/03/23 09:22:21;;;;;;;15.80;7.77;;;4.60;99.90;;;;;;5033467;28;20199;-87
2021/03/23 09:24:47;;;;;;;17.70;7.73;;;4.70;99.90;;;;;;5033064;28;20184;-86
2021/03/23 09:27:34;;;;;;;19.67;8.87;;;4.60;99.90;;;;;;5032191;28;20679;-86
2021/03/23 09:30:00;;;;;;;18.97;7.57;;;4.50;99.90;;;;;;5028513;28;20184;-88
2021/03/23 09:32:29;;;;;;;13.80;7.37;;;4.50;99.90;;;;;;5031714;28;20676;-87
2021/03/23 09:35:12;;;;;;;13.00;7.20;;;4.60;99.90;;;;;;5016197;28;20184;-87
2021/03/23 09:37:47;;;;;;;15.13;7.80;;;4.60;99.90;;;;;;5023026;28;20270;-87
2021/03/23 09:40:19;;;;;;;15.13;7.30;;;4.80;99.90;;;;;;5026817;28;20171;-86
2021/03/23 09:42:47;;;;;;;16.47;6.53;;;3.50;99.90;;;;;;5024773;28;20583;-85
2021/03/23 09:45:13;;;;;;;15.23;7.17;;;5.00;99.90;;;;;;5047515;28;20586;-86
2021/03/23 09:48:12;;;;;;;19.97;8.53;;;5.10;99.90;;;;;;5031306;28;20222;-87
2021/03/23 09:50:51;;;;;;;17.20;7.63;;;5.00;99.90;;;;;;5027202;28;20185;-87
2021/03/23 09:53:28;;;;;;;14.20;5.83;;;5.20;99.90;;;;;;5025205;28;20176;-87
2021/03/23 09:56:06;;;;;;;17.80;8.37;;;5.20;99.90;;;;;;5031152;28;20179;-87
2021/03/23 09:58:31;;;;;;;15.17;8.50;;;5.40;99.90;;;;;;5033147;28;20212;-87
2021/03/23 10:01:23;;;;;;;15.40;6.70;;;5.20;99.90;;;;;;5034852;28;20198;-88
2021/03/23 10:03:51;;;;;;;16.80;7.30;;;5.10;99.90;;;;;;5033011;28;20184;-86
2021/03/23 10:06:20;;;;;;;12.80;7.60;;;5.10;99.90;;;;;;5034287;28;20227;-87
2021/03/23 10:08:53;;;;;;;15.80;7.43;;;5.20;99.90;;;;;;5033707;28;20235;-87
2021/03/23 10:11:20;;;;;;;13.83;6.97;;;5.10;99.90;;;;;;5032916;28;20678;-86
2021/03/23 10:13:58;;;;;;;18.93;6.93;;;5.30;99.90;;;;;;5025288;28;20187;-87
2021/03/23 10:16:33;;;;;;;12.33;6.90;;;5.50;99.90;;;;;;5025162;28;20186;-90
2021/03/23 10:19:23;;;;;;;11.90;6.27;;;5.70;99.90;;;;;;5026577;28;20216;-88
2021/03/23 10:21:51;;;;;;;14.80;7.03;;;5.70;99.90;;;;;;5022925;28;20285;-89
2021/03/23 10:24:23;;;;;;;20.53;7.47;;;6.00;99.90;;;;;;5028781;28;20640;-90
2021/03/23 10:26:52;;;;;;;13.80;7.47;;;6.20;99.90;;;;;;5031050;28;20208;-87
2021/03/23 10:29:24;;;;;;;16.60;7.80;;;6.00;99.90;;;;;;5030806;28;20196;-87
2021/03/23 10:31:52;;;;;;;18.07;7.40;;;5.80;99.90;;;;;;5030085;28;20196;-87
2021/03/23 10:34:30;;;;;;;18.80;8.40;;;5.50;99.90;;;;;;5032639;28;20223;-90
2021/03/23 10:36:59;;;;;;;16.90;8.50;;;5.60;99.90;;;;;;5030821;28;20185;-90
2021/03/23 10:39:25;;;;;;;14.27;7.00;;;5.50;99.90;;;;;;5019474;28;20219;-87
2021/03/23 10:41:50;;;;;;;10.53;6.63;;;5.50;99.90;;;;;;5011103;28;20197;-88
2021/03/23 10:44:31;;;;;;;14.00;7.13;;;5.40;99.90;;;;;;5012346;28;20180;-87
2021/03/23 10:46:58;;;;;;;17.37;7.93;;;5.30;99.90;;;;;;5012298;28;20185;-87
2021/03/23 10:49:35;;;;;;;18.00;8.80;;;4.80;99.90;;;;;;5010764;28;20188;-87
2021/03/23 10:52:24;;;;;;;21.17;8.30;;;5.40;99.90;;;;;;5012248;28;20179;-87
2021/03/23 10:55:09;;;;;;;16.33;7.70;;;5.50;99.90;;;;;;5010560;28;20181;-88
2021/03/23 10:57:38;;;;;;;14.30;6.67;;;5.60;99.90;;;;;;5011839;28;20181;-87
2021/03/23 11:00:27;;;;;;;11.00;6.27;;;5.60;99.90;;;;;;4996762;28;20247;-88
2021/03/23 11:02:53;;;;;;;14.73;7.53;;;5.50;99.90;;;;;;5012547;28;20251;-87
2021/03/23 11:05:22;;;;;;;12.43;5.73;;;5.40;99.90;;;;;;5013558;28;20233;-86
2021/03/23 11:07:50;;;;;;;12.90;6.97;;;5.40;99.90;;;;;;5012925;28;20243;-85
2021/03/23 11:10:20;;;;;;;17.77;7.53;;;5.30;99.90;;;;;;5012440;28;20189;-88
2021/03/23 11:12:46;;;;;;;13.47;6.53;;;5.40;99.90;;;;;;5013702;28;20196;-86
2021/03/23 11:15:13;;;;;;;13.10;7.03;;;5.40;99.90;;;;;;5013827;28;20184;-87
2021/03/23 11:17:46;;;;;;;15.47;7.33;;;5.40;99.90;;;;;;5014017;28;20177;-86
2021/03/23 11:20:20;;;;;;;17.67;7.10;;;5.40;99.90;;;;;;5012495;28;20200;-91
2021/03/23 11:22:45;;;;;;;18.53;7.33;;;5.50;99.90;;;;;;5012156;28;20189;-87
2021/03/23 11:25:18;;;;;;;11.80;6.47;;;5.60;99.90;;;;;;5015738;28;20177;-84
2021/03/23 11:27:43;;;;;;;15.00;6.40;;;5.60;99.90;;;;;;5016258;28;20255;-87
2021/03/23 11:30:10;;;;;;;20.33;7.37;;;5.60;99.90;;;;;;5014614;28;20649;-84
2021/03/23 11:32:35;;;;;;;21.27;8.27;;;5.60;99.90;;;;;;5014380;28;20199;-84
2021/03/23 11:35:01;;;;;;;16.67;7.23;;;5.60;99.90;;;;;;5013393;28;20223;-86
2021/03/23 11:37:27;;;;;;;13.37;7.40;;;5.50;99.90;;;;;;4995638;28;20192;-86
2021/03/23 11:39:53;;;;;;;15.57;8.07;;;5.50;99.90;;;;;;5011010;28;20685;-83
2021/03/23 11:42:57;;;;;;;20.27;8.27;;;5.60;99.90;;;;;;5025220;28;20181;-84
2021/03/23 11:45:42;;;;;;;19.00;7.77;;;5.60;99.90;;;;;;5013362;28;20293;-86
2021/03/23 11:48:12;;;;;;;11.07;6.17;;;5.60;99.90;;;;;;5008960;28;20246;-88
2021/03/23 11:50:41;;;;;;;17.63;6.60;;;5.50;99.90;;;;;;5023432;28;20309;-91
2021/03/23 11:53:07;;;;;;;20.30;8.20;;;5.50;99.90;;;;;;5052260;28;20188;-89
2021/03/23 11:55:43;;;;;;;13.60;6.23;;;5.60;99.90;;;;;;5048086;28;20181;-88
2021/03/23 11:58:10;;;;;;;12.43;5.33;;;5.70;99.90;;;;;;5034178;28;20211;-89
2021/03/23 12:00:47;;;;;;;11.20;5.67;;;5.60;99.90;;;;;;5048531;28;20633;-91
2021/03/23 12:03:14;;;;;;;12.87;6.73;;;5.60;99.90;;;;;;5016959;28;20193;-89
2021/03/23 12:05:41;;;;;;;12.90;6.03;;;5.60;99.90;;;;;;5048204;28;20587;-86
2021/03/23 12:08:33;;;;;;;14.10;6.67;;;5.50;99.90;;;;;;5050099;28;20247;-90
2021/03/23 12:11:17;;;;;;;16.87;6.87;;;5.60;99.90;;;;;;5049099;28;20640;-90
2021/03/23 12:14:22;;;;;;;17.73;6.37;;;5.70;99.90;;;;;;5047531;28;20191;-92
2021/03/23 12:17:08;;;;;;;12.53;5.60;;;5.70;99.90;;;;;;5028345;28;20517;-90
2021/03/23 12:19:43;;;;;;;15.67;6.30;;;5.80;99.90;;;;;;5013449;28;20209;-90
2021/03/23 12:22:11;;;;;;;14.47;6.53;;;6.10;99.90;;;;;;5013294;28;20264;-92
2021/03/23 12:24:39;;;;;;;19.27;5.90;;;6.00;99.90;;;;;;5045237;28;20695;-94
2021/03/23 12:27:05;;;;;;;22.27;7.80;;;6.00;99.90;;;;;;5048379;28;20212;-91
2021/03/23 12:29:38;;;;;;;12.20;6.20;;;6.10;99.90;;;;;;5018553;28;20283;-92
2021/03/23 12:32:06;;;;;;;25.90;10.77;;;5.90;99.90;;;;;;5035259;28;20184;-90
2021/03/23 12:34:32;;;;;;;10.40;5.80;;;5.90;99.90;;;;;;5036335;28;20179;-92
2021/03/23 12:36:58;;;;;;;18.17;7.50;;;5.90;99.90;;;;;;5036257;28;20184;-92
2021/03/23 12:39:24;;;;;;;14.40;7.33;;;5.90;99.90;;;;;;5035917;28;20212;-93
2021/03/23 12:41:50;;;;;;;14.37;8.30;;;6.00;99.90;;;;;;5034736;28;20192;-91
2021/03/23 12:44:16;;;;;;;15.47;7.30;;;6.00;99.90;;;;;;5016074;28;20276;-93
2021/03/23 12:46:42;;;;;;;15.33;7.43;;;5.90;99.90;;;;;;5044715;28;20180;-91
2021/03/23 12:49:08;;;;;;;16.57;7.83;;;5.90;99.90;;;;;;5034561;28;20686;-92
2021/03/23 12:51:38;;;;;;;14.70;6.67;;;5.90;99.90;;;;;;5036054;28;20181;-93
2021/03/23 12:54:06;;;;;;;13.10;7.03;;;5.90;99.90;;;;;;5036359;28;20244;-94
2021/03/23 12:56:32;;;;;;;15.03;7.70;;;5.80;99.90;;;;;;5038557;28;20176;-91
2021/03/23 12:59:00;;;;;;;10.57;6.03;;;5.70;99.90;;;;;;5035283;28;20244;-92
2021/03/23 13:01:25;;;;;;;14.33;6.77;;;5.70;99.90;;;;;;5033389;28;20227;-91
2021/03/23 13:03:51;;;;;;;11.33;5.60;;;5.70;99.90;;;;;;5038859;28;20188;-95
2021/03/23 13:06:25;;;;;;;12.03;6.20;;;5.70;99.90;;;;;;5022535;28;20236;-93
2021/03/23 13:08:51;;;;;;;14.10;7.37;;;5.70;99.90;;;;;;5032670;28;20205;-93
2021/03/23 13:11:21;;;;;;;12.80;6.80;;;5.70;99.90;;;;;;4993582;28;20612;-95
2021/03/23 13:13:58;;;;;;;12.43;5.87;;;5.80;99.90;;;;;;5034401;28;20654;-94
2021/03/23 13:16:24;;;;;;;11.57;5.40;;;5.70;99.90;;;;;;5035755;28;20632;-94
2021/03/23 13:18:52;;;;;;;11.37;5.10;;;5.70;99.90;;;;;;5026321;28;20213;-94